メインページ
METAR-TAF:

METAR-TAF

空港 :

ルイ・アームストロング・ニューオーリンズ国際空港

ニューオーリンズ, ルイジアナ州, アメリカ合衆国

緯度: 29-59-34N, 経度: 090-15-03W, 海抜: 1m

現時点の気象観測

当レポートは34分前の18:53(UTC)に作成
西/北西の風 5kt
気温 34°C
湿度 56%
気圧 1013 hPa
視程: 16.1km
高度4700ftの雲は散在している, 積乱雲.
高度12000ftの雲は散在している
高度25000ftの千切れ雲あり
近辺で激しい雷雨

METAR: KMSY 181853Z 29005KT 10SM VCTS SCT047CB SCT120 BKN250 34/24 A2992 RMK AO2 LTG DSNT SE AND W AND NW SLP136 CB S AND SW STNRY CB DSNT N AND NE AND SE AND W AND NW T03440244

時間: 14:27 (19:27 UTC)

予報

当レポートは1時間58分前の17:29(UTC)に作成
予報は18日の 18時(UTC)から 19日の 24時(UTC)まで有効
の風 kt
視程: 10km
高度4500ftの雲は散在している
19日の 0000時(UTC)から
の風 kt
視程: 10km
高度4000ftの雲はほとんどない
高度25000ftの雲は散在している
確率 30%
19日の 17時(UTC)から 19日の 21時(UTC)まで
視程: 6.4km
高度10000ftの千切れ雲あり, 積乱雲.
激しい雷雨, 雨

TAF: KMSY 181729Z 1818/1924 00000KT P6SM SCT045 FM190000 00000KT P6SM FEW040 SCT250 PROB30 1917/1921 4SM TSRA BKN100CB

4,000以上の空港の気象観測と天気予報(METAR報とTAF報)

利用可能な観測所は地図上に黄色い丸と赤い丸で示す。

丸の上にカーソルを重ねると観測所名を参照できる。

次にクリックすると気象観測と天気予報を参照できる。

マップの切り替え:黒色「×」印の緑ボタンをクリックして拡大、「-」印の緑ボタンをクリックして縮小、緑色の三角印をクリックして隣りの地図に切り替え


METAR-TAF: